createdAt,value
2017-05-20T00:01:31.117Z,95835.36
2017-05-20T00:03:57.371Z,95840.18
2017-05-20T00:06:23.630Z,95839.20
2017-05-20T00:08:50.068Z,95831.88
2017-05-20T00:11:16.306Z,95832.91
2017-05-20T00:13:42.545Z,95833.66
2017-05-20T00:16:08.844Z,95830.05
2017-05-20T00:18:35.248Z,95825.64
2017-05-20T00:21:02.534Z,95824.40
2017-05-20T00:23:28.783Z,95825.56
2017-05-20T00:25:55.083Z,95823.95
2017-05-20T00:28:21.272Z,95825.19
2017-05-20T00:30:47.494Z,95827.72
2017-05-20T00:33:13.830Z,95829.66
2017-05-20T00:35:40.772Z,95828.58
2017-05-20T00:38:07.043Z,95825.63
2017-05-20T00:40:33.258Z,95816.55
2017-05-20T00:42:59.592Z,95819.51
2017-05-20T00:45:26.584Z,95818.75
2017-05-20T00:47:52.827Z,95815.41
2017-05-20T00:50:19.034Z,95817.89
2017-05-20T00:52:46.098Z,95827.20
2017-05-20T00:55:12.401Z,95813.80
2017-05-20T00:57:38.653Z,95820.16
2017-05-20T01:00:04.929Z,95823.09
2017-05-20T01:02:31.878Z,95821.74
2017-05-20T01:04:58.129Z,95821.22
2017-05-20T01:07:24.542Z,95814.22
2017-05-20T01:09:50.727Z,95816.31
2017-05-20T01:12:16.960Z,95814.07
2017-05-20T01:14:43.217Z,95813.86
2017-05-20T01:17:09.490Z,95821.81
2017-05-20T01:19:36.503Z,95818.99
2017-05-20T01:22:02.717Z,95818.31
2017-05-20T01:24:28.875Z,95819.97
2017-05-20T01:26:55.070Z,95811.51
2017-05-20T01:29:21.341Z,95815.67
2017-05-20T01:31:47.621Z,95817.34
2017-05-20T01:34:13.893Z,95812.12
2017-05-20T01:36:40.177Z,95816.20
2017-05-20T01:39:07.382Z,95818.84
2017-05-20T01:41:33.630Z,95815.37
2017-05-20T01:43:59.969Z,95823.20
2017-05-20T01:46:26.187Z,95820.03
2017-05-20T01:48:52.451Z,95818.21
2017-05-20T01:51:18.854Z,95824.52
2017-05-20T01:53:45.045Z,95824.51
2017-05-20T01:56:11.242Z,95828.74
2017-05-20T01:58:37.421Z,95834.52
2017-05-20T02:01:03.709Z,95831.94
2017-05-20T02:03:29.861Z,95828.91
2017-05-20T02:05:56.079Z,95825.74
2017-05-20T02:08:22.283Z,95824.94
2017-05-20T02:10:48.601Z,95824.70
2017-05-20T02:13:15.668Z,95824.19
2017-05-20T02:15:41.822Z,95822.30
2017-05-20T02:18:09.063Z,95820.30
2017-05-20T02:20:35.524Z,95822.27
2017-05-20T02:23:02.480Z,95821.88
2017-05-20T02:25:28.710Z,95821.20
2017-05-20T02:27:55.007Z,95820.48
2017-05-20T02:30:21.969Z,95815.95
2017-05-20T02:32:48.236Z,95818.45
2017-05-20T02:35:14.489Z,95820.38
2017-05-20T02:37:40.682Z,95823.72
2017-05-20T02:40:06.905Z,95823.22
2017-05-20T02:42:33.172Z,95824.89
2017-05-20T02:44:59.383Z,95832.82
2017-05-20T02:47:26.364Z,95833.39
2017-05-20T02:49:52.609Z,95835.43
2017-05-20T02:52:18.851Z,95835.97
2017-05-20T02:54:50.188Z,95835.43
2017-05-20T02:57:16.382Z,95836.41
2017-05-20T02:59:42.626Z,95837.38
2017-05-20T03:02:08.870Z,95840.37
2017-05-20T03:04:35.225Z,95838.01
2017-05-20T03:07:01.428Z,95832.47
2017-05-20T03:09:27.728Z,95841.28
2017-05-20T03:11:54.729Z,95835.27
2017-05-20T03:14:21.659Z,95837.85
2017-05-20T03:16:47.911Z,95841.16
2017-05-20T03:19:14.197Z,95839.30
2017-05-20T03:21:40.499Z,95842.67
2017-05-20T03:24:06.724Z,95845.09
2017-05-20T03:26:32.979Z,95847.72
2017-05-20T03:28:59.172Z,95850.09
2017-05-20T03:31:25.407Z,95845.34
2017-05-20T03:33:51.722Z,95859.20
2017-05-20T03:36:24.148Z,95854.50
2017-05-20T03:38:50.375Z,95853.14
2017-05-20T03:41:16.699Z,95853.80
2017-05-20T03:43:42.918Z,95854.37
2017-05-20T03:46:09.146Z,95855.05
2017-05-20T03:48:35.500Z,95856.13
2017-05-20T03:51:01.734Z,95854.52
2017-05-20T03:53:27.998Z,95864.90
2017-05-20T03:55:54.238Z,95872.79
2017-05-20T03:58:20.518Z,95873.08
2017-05-20T04:00:46.817Z,95872.01
2017-05-20T04:03:13.013Z,95876.26
2017-05-20T04:05:39.349Z,95881.99
2017-05-20T04:08:05.603Z,95885.08
2017-05-20T04:10:31.808Z,95886.68
2017-05-20T04:12:58.069Z,95892.95
2017-05-20T04:15:24.337Z,95897.61
2017-05-20T04:17:55.910Z,95897.27
2017-05-20T04:20:22.546Z,95900.31
2017-05-20T04:22:48.836Z,95906.83
2017-05-20T04:25:15.066Z,95910.79
2017-05-20T04:27:41.294Z,95914.41
2017-05-20T04:30:07.540Z,95915.76
2017-05-20T04:32:33.762Z,95921.53
2017-05-20T04:35:00.862Z,95924.56
2017-05-20T04:37:27.111Z,95919.09
2017-05-20T04:39:53.404Z,95923.84
2017-05-20T04:42:19.638Z,95924.33
2017-05-20T04:44:45.987Z,95925.85
2017-05-20T04:47:12.191Z,95924.13
2017-05-20T04:49:38.508Z,95916.49
2017-05-20T04:52:05.485Z,95922.63
2017-05-20T04:54:31.708Z,95919.07
2017-05-20T04:56:57.970Z,95930.20
2017-05-20T04:59:24.877Z,95938.63
2017-05-20T05:01:51.142Z,95933.59
2017-05-20T05:04:18.106Z,95928.23
2017-05-20T05:06:44.302Z,95931.08
2017-05-20T05:09:10.538Z,95932.48
2017-05-20T05:11:36.804Z,95934.73
2017-05-20T05:14:03.010Z,95937.80
2017-05-20T05:16:29.254Z,95939.75
2017-05-20T05:18:55.551Z,95942.45
2017-05-20T05:21:21.805Z,95938.45
2017-05-20T05:23:48.047Z,95945.92
2017-05-20T05:26:14.498Z,95946.13
2017-05-20T05:28:40.779Z,95949.14
2017-05-20T05:31:07.821Z,95954.66
2017-05-20T05:33:34.280Z,95959.36
2017-05-20T05:36:01.479Z,95964.77
2017-05-20T05:38:27.724Z,95967.86
2017-05-20T05:40:54.169Z,95972.62
2017-05-20T05:43:20.422Z,95976.84
2017-05-20T05:45:46.635Z,95973.14
2017-05-20T05:48:12.910Z,95973.00
2017-05-20T05:50:39.200Z,95971.06
2017-05-20T05:53:05.519Z,95979.59
2017-05-20T05:55:33.783Z,95978.34
2017-05-20T05:58:00.102Z,95978.34
2017-05-20T06:00:26.447Z,95968.09
2017-05-20T06:03:02.323Z,95974.19
2017-05-20T06:05:28.622Z,95973.61
2017-05-20T06:07:54.818Z,95969.70
2017-05-20T06:10:21.798Z,95978.66
2017-05-20T06:12:48.900Z,95977.45
2017-05-20T06:15:15.160Z,95977.50
2017-05-20T06:17:41.420Z,95977.86
2017-05-20T06:20:07.650Z,95975.55
2017-05-20T06:22:33.862Z,95972.48
2017-05-20T06:25:00.395Z,95981.16
2017-05-20T06:27:26.689Z,95980.23
2017-05-20T06:29:52.970Z,95979.06
2017-05-20T06:32:19.217Z,95979.11
2017-05-20T06:34:45.593Z,95986.75
2017-05-20T06:37:11.888Z,95985.20
2017-05-20T06:39:38.113Z,95980.64
2017-05-20T06:42:04.615Z,95979.73
2017-05-20T06:44:30.906Z,95982.52
2017-05-20T06:46:57.149Z,95979.41
2017-05-20T06:49:23.623Z,95987.48
2017-05-20T06:51:50.628Z,95982.48
2017-05-20T06:54:17.620Z,95992.42
2017-05-20T06:56:44.341Z,95994.85
2017-05-20T06:59:10.577Z,95997.95
2017-05-20T07:01:36.802Z,96002.47
2017-05-20T07:04:03.017Z,96004.09
2017-05-20T07:06:29.256Z,96009.09
2017-05-20T07:08:55.608Z,96007.20
2017-05-20T07:11:21.812Z,96005.83
2017-05-20T07:13:48.084Z,96000.97
2017-05-20T07:16:14.289Z,96005.55
2017-05-20T07:18:40.470Z,96011.49
2017-05-20T07:21:06.680Z,96015.61
2017-05-20T07:23:32.918Z,96012.06
2017-05-20T07:25:59.145Z,96012.10
2017-05-20T07:28:26.099Z,96009.27
2017-05-20T07:30:52.315Z,96007.80
2017-05-20T07:33:18.554Z,96009.06
2017-05-20T07:35:45.493Z,96013.88
2017-05-20T07:38:11.747Z,96008.72
2017-05-20T07:40:38.051Z,96020.02
2017-05-20T07:43:04.294Z,96019.77
2017-05-20T07:45:30.598Z,96017.59
2017-05-20T07:47:57.611Z,96014.19
2017-05-20T07:50:23.864Z,96016.98
2017-05-20T07:52:50.134Z,96016.80
2017-05-20T07:55:16.389Z,96020.58
2017-05-20T07:57:42.646Z,96020.42
2017-05-20T08:00:08.848Z,96016.80
2017-05-20T08:02:35.111Z,96012.34
2017-05-20T08:05:01.429Z,96011.44
2017-05-20T08:07:27.658Z,96008.63
2017-05-20T08:09:53.908Z,96015.47
2017-05-20T08:12:20.154Z,96015.91
2017-05-20T08:14:46.385Z,96020.58
2017-05-20T08:17:14.638Z,96019.00
2017-05-20T08:19:40.887Z,96017.31
2017-05-20T08:22:07.111Z,96012.02
2017-05-20T08:24:34.073Z,96017.91
2017-05-20T08:27:01.030Z,96021.24
2017-05-20T08:29:33.419Z,96009.86
2017-05-20T08:31:59.639Z,96014.09
2017-05-20T08:34:26.601Z,96011.70
2017-05-20T08:36:52.850Z,96013.44
2017-05-20T08:39:19.074Z,96012.50
2017-05-20T08:41:45.345Z,96013.21
2017-05-20T08:44:11.634Z,96018.88
2017-05-20T08:46:37.876Z,96013.63
2017-05-20T08:49:04.094Z,96016.66
2017-05-20T08:51:30.339Z,96025.67
2017-05-20T08:53:56.568Z,96018.57
2017-05-20T08:56:22.802Z,96029.02
2017-05-20T08:58:49.038Z,96028.27
2017-05-20T09:01:15.275Z,96030.92
2017-05-20T09:03:41.498Z,96029.66
2017-05-20T09:06:07.793Z,96035.05
2017-05-20T09:08:35.811Z,96031.25
2017-05-20T09:11:09.099Z,96034.38
2017-05-20T09:13:36.141Z,96032.94
2017-05-20T09:16:02.469Z,96025.81
2017-05-20T09:18:28.764Z,96028.77
2017-05-20T09:20:55.058Z,96020.72
2017-05-20T09:23:21.311Z,96018.25
2017-05-20T09:25:47.550Z,96026.03
2017-05-20T09:28:13.788Z,96026.45
2017-05-20T09:30:40.020Z,96019.62
2017-05-20T09:33:06.251Z,96012.58
2017-05-20T09:35:32.477Z,96015.52
2017-05-20T09:37:59.014Z,96010.09
2017-05-20T09:40:25.313Z,96022.97
2017-05-20T09:42:51.718Z,96020.67
2017-05-20T09:45:17.899Z,96035.05
2017-05-20T09:47:44.868Z,96037.56
2017-05-20T09:50:11.095Z,96036.33
2017-05-20T09:52:37.370Z,96032.72
2017-05-20T09:55:03.573Z,96021.48
2017-05-20T09:57:29.831Z,96031.83
2017-05-20T09:59:56.056Z,96030.67
2017-05-20T10:02:22.306Z,96031.50
2017-05-20T10:04:49.352Z,96027.81
2017-05-20T10:07:15.578Z,96018.94
2017-05-20T10:09:41.825Z,96021.95
2017-05-20T10:12:08.862Z,96010.89
2017-05-20T10:14:35.202Z,96009.09
2017-05-20T10:17:01.437Z,96009.38
2017-05-20T10:19:27.967Z,96010.34
2017-05-20T10:21:54.188Z,96015.80
2017-05-20T10:24:20.458Z,96017.16
2017-05-20T10:26:46.670Z,96012.08
2017-05-20T10:29:12.867Z,96021.34
2017-05-20T10:31:39.402Z,96029.27
2017-05-20T10:34:07.952Z,96028.40
2017-05-20T10:36:34.462Z,96027.28
2017-05-20T10:39:01.422Z,96022.52
2017-05-20T10:41:27.586Z,96018.37
2017-05-20T10:43:53.782Z,96029.00
2017-05-20T10:46:20.029Z,96021.81
2017-05-20T10:48:46.322Z,96023.78
2017-05-20T10:51:13.422Z,96014.16
2017-05-20T10:53:40.382Z,96026.61
2017-05-20T10:56:07.338Z,96019.86
2017-05-20T10:58:33.547Z,96018.23
2017-05-20T11:00:59.788Z,96011.30
2017-05-20T11:03:26.929Z,96015.13
2017-05-20T11:05:54.225Z,96013.09
2017-05-20T11:08:20.439Z,96018.28
2017-05-20T11:10:46.697Z,96013.62
2017-05-20T11:13:12.953Z,96021.33
2017-05-20T11:15:39.349Z,96022.79
2017-05-20T11:18:05.607Z,96016.54
2017-05-20T11:20:31.910Z,96011.69
2017-05-20T11:22:58.853Z,96016.63
2017-05-20T11:25:25.088Z,96026.35
2017-05-20T11:27:51.329Z,96018.45
2017-05-20T11:30:18.382Z,96012.57
2017-05-20T11:32:44.619Z,96010.75
2017-05-20T11:35:11.572Z,96012.31
2017-05-20T11:37:42.476Z,96011.83
2017-05-20T11:40:09.491Z,96008.45
2017-05-20T11:42:36.506Z,96007.42
2017-05-20T11:45:02.750Z,96008.87
2017-05-20T11:47:28.999Z,96016.70
2017-05-20T11:49:55.362Z,96001.73
2017-05-20T11:52:21.902Z,96001.48
2017-05-20T11:54:48.197Z,95995.95
2017-05-20T11:57:15.151Z,96001.71
2017-05-20T11:59:41.400Z,95999.00
2017-05-20T12:02:08.939Z,95992.17
2017-05-20T12:04:35.862Z,95991.42
2017-05-20T12:07:02.171Z,96009.05
2017-05-20T12:09:28.482Z,96005.58
2017-05-20T12:11:54.728Z,96016.16
2017-05-20T12:14:21.774Z,96009.42
2017-05-20T12:16:47.995Z,96012.08
2017-05-20T12:19:14.200Z,96015.20
2017-05-20T12:21:40.521Z,96020.89
2017-05-20T12:24:06.855Z,96015.66
2017-05-20T12:26:33.164Z,96026.39
2017-05-20T12:28:59.358Z,96019.11
2017-05-20T12:31:25.649Z,96020.55
2017-05-20T12:33:51.862Z,96018.23
2017-05-20T12:36:18.936Z,96017.04
2017-05-20T12:38:45.246Z,96014.28
2017-05-20T12:41:11.494Z,96015.12
2017-05-20T12:43:37.694Z,96007.66
2017-05-20T12:46:03.913Z,96008.72
2017-05-20T12:48:30.846Z,96013.88
2017-05-20T12:50:57.110Z,96014.45
2017-05-20T12:53:24.067Z,96007.25
2017-05-20T12:55:50.298Z,96002.69
2017-05-20T12:58:16.543Z,96002.20
2017-05-20T13:00:43.514Z,96005.81
2017-05-20T13:03:09.748Z,96004.45
2017-05-20T13:05:36.782Z,95999.83
2017-05-20T13:08:04.104Z,96003.03
2017-05-20T13:10:30.333Z,96003.77
2017-05-20T13:12:56.634Z,95998.66
2017-05-20T13:15:22.827Z,95993.70
2017-05-20T13:17:49.077Z,96007.00
2017-05-20T13:20:15.404Z,95996.20
2017-05-20T13:22:41.707Z,95997.36
2017-05-20T13:25:08.070Z,95991.70
2017-05-20T13:27:34.317Z,95992.63
2017-05-20T13:30:01.345Z,95989.16
2017-05-20T13:32:27.851Z,95985.83
2017-05-20T13:34:54.746Z,95994.94
2017-05-20T13:37:21.186Z,95984.50
2017-05-20T13:39:47.371Z,95995.33
2017-05-20T13:42:14.453Z,95987.97
2017-05-20T13:44:40.667Z,95991.42
2017-05-20T13:47:06.962Z,95991.06
2017-05-20T13:49:33.189Z,95994.70
2017-05-20T13:52:00.146Z,96001.41
2017-05-20T13:54:27.111Z,95997.80
2017-05-20T13:56:53.437Z,95994.33
2017-05-20T13:59:19.653Z,95995.45
2017-05-20T14:01:45.969Z,95999.14
2017-05-20T14:04:12.217Z,95993.55
2017-05-20T14:06:38.471Z,95996.38
2017-05-20T14:09:04.714Z,96001.84
2017-05-20T14:11:30.966Z,95992.58
2017-05-20T14:13:57.212Z,96001.67
2017-05-20T14:16:23.432Z,95996.92
2017-05-20T14:18:49.655Z,96001.87
2017-05-20T14:21:15.850Z,96009.17
2017-05-20T14:23:42.128Z,96009.61
2017-05-20T14:26:08.351Z,96009.47
2017-05-20T14:28:34.594Z,96012.41
2017-05-20T14:31:00.813Z,96014.73
2017-05-20T14:33:27.771Z,96019.88
2017-05-20T14:35:54.290Z,96016.59
2017-05-20T14:38:20.574Z,96018.95
2017-05-20T14:40:47.271Z,96017.89
2017-05-20T14:43:13.655Z,96024.85
2017-05-20T14:45:39.851Z,96025.31
2017-05-20T14:48:06.083Z,96022.99
2017-05-20T14:50:32.321Z,96025.05
2017-05-20T14:52:58.658Z,96029.48
2017-05-20T14:55:25.793Z,96024.78
2017-05-20T14:57:52.053Z,96031.75
2017-05-20T15:00:18.313Z,96033.30
2017-05-20T15:02:44.530Z,96030.41
2017-05-20T15:05:10.755Z,96036.45
2017-05-20T15:07:37.202Z,96030.83
2017-05-20T15:10:04.281Z,96031.64
2017-05-20T15:12:30.482Z,96030.73
2017-05-20T15:14:56.715Z,96033.65
2017-05-20T15:17:23.014Z,96026.08
2017-05-20T15:19:49.270Z,96028.34
2017-05-20T15:22:15.440Z,96033.74
2017-05-20T15:24:41.650Z,96036.77
2017-05-20T15:27:15.854Z,96032.59
2017-05-20T15:29:42.711Z,96041.34
2017-05-20T15:32:09.038Z,96042.81
2017-05-20T15:34:35.994Z,96036.87
2017-05-20T15:37:02.534Z,96037.54
2017-05-20T15:39:28.975Z,96035.82
2017-05-20T15:41:55.965Z,96036.13
2017-05-20T15:44:22.201Z,96042.86
2017-05-20T15:46:48.417Z,96036.20
2017-05-20T15:49:14.660Z,96041.88
2017-05-20T15:51:40.970Z,96042.38
2017-05-20T15:54:07.333Z,96042.95
2017-05-20T15:56:33.557Z,96049.88
2017-05-20T15:58:59.801Z,96048.02
2017-05-20T16:01:26.838Z,96050.17
2017-05-20T16:03:53.797Z,96050.12
2017-05-20T16:06:20.009Z,96046.78
2017-05-20T16:08:46.269Z,96055.54
2017-05-20T16:11:12.479Z,96049.00
2017-05-20T16:13:38.751Z,96058.56
2017-05-20T16:16:05.794Z,96055.89
2017-05-20T16:18:32.822Z,96062.48
2017-05-20T16:20:59.055Z,96061.08
2017-05-20T16:23:25.251Z,96064.32
2017-05-20T16:25:52.238Z,96068.41
2017-05-20T16:28:18.401Z,96078.13
2017-05-20T16:30:44.665Z,96077.27
2017-05-20T16:33:10.938Z,96075.47
2017-05-20T16:35:37.198Z,96079.00
2017-05-20T16:38:03.414Z,96079.69
2017-05-20T16:40:29.607Z,96077.93
2017-05-20T16:42:56.648Z,96077.17
2017-05-20T16:45:23.715Z,96084.13
2017-05-20T16:47:49.989Z,96092.44
2017-05-20T16:50:16.447Z,96094.64
2017-05-20T16:52:42.659Z,96094.92
2017-05-20T16:55:08.909Z,96096.90
2017-05-20T16:57:35.134Z,96099.09
2017-05-20T17:00:01.391Z,96102.92
2017-05-20T17:02:27.586Z,96105.61
2017-05-20T17:04:53.829Z,96110.34
2017-05-20T17:07:20.083Z,96109.11
2017-05-20T17:09:46.399Z,96116.28
2017-05-20T17:12:14.612Z,96125.39
2017-05-20T17:14:40.957Z,96125.95
2017-05-20T17:17:07.362Z,96132.74
2017-05-20T17:19:33.593Z,96134.61
2017-05-20T17:22:00.532Z,96137.25
2017-05-20T17:24:26.798Z,96137.68
2017-05-20T17:26:54.074Z,96145.05
2017-05-20T17:29:21.102Z,96147.89
2017-05-20T17:31:47.346Z,96155.21
2017-05-20T17:34:13.598Z,96160.51
2017-05-20T17:36:39.886Z,96159.19
2017-05-20T17:39:06.134Z,96166.72
2017-05-20T17:41:32.359Z,96163.34
2017-05-20T17:43:58.603Z,96166.00
2017-05-20T17:46:24.875Z,96172.19
2017-05-20T17:48:51.105Z,96172.94
2017-05-20T17:51:18.159Z,96170.30
2017-05-20T17:53:44.358Z,96170.87
2017-05-20T17:56:10.638Z,96175.37
2017-05-20T17:58:36.913Z,96176.88
2017-05-20T18:01:03.179Z,96170.69
2017-05-20T18:03:29.404Z,96173.13
2017-05-20T18:05:55.649Z,96174.81
2017-05-20T18:08:21.878Z,96182.70
2017-05-20T18:10:49.656Z,96182.70
2017-05-20T18:13:16.070Z,96183.45
2017-05-20T18:15:42.319Z,96186.45
2017-05-20T18:18:08.510Z,96185.52
2017-05-20T18:20:34.780Z,96192.65
2017-05-20T18:23:00.991Z,96193.00
2017-05-20T18:25:27.263Z,96194.88
2017-05-20T18:27:54.389Z,96203.50
2017-05-20T18:30:20.610Z,96207.45
2017-05-20T18:32:46.905Z,96208.20
2017-05-20T18:35:14.779Z,96207.83
2017-05-20T18:37:40.968Z,96211.39
2017-05-20T18:40:07.207Z,96213.45
2017-05-20T18:42:33.594Z,96213.61
2017-05-20T18:45:00.584Z,96220.92
2017-05-20T18:47:26.818Z,96225.98
2017-05-20T18:49:53.098Z,96224.11
2017-05-20T18:52:19.312Z,96222.42
2017-05-20T18:54:45.510Z,96224.11
2017-05-20T18:57:11.773Z,96228.80
2017-05-20T18:59:38.006Z,96233.30
2017-05-20T19:02:04.239Z,96238.73
2017-05-20T19:04:30.501Z,96231.20
2017-05-20T19:06:56.718Z,96240.95
2017-05-20T19:09:22.939Z,96243.76
2017-05-20T19:11:49.200Z,96240.38
2017-05-20T19:14:16.276Z,96245.43
2017-05-20T19:16:48.702Z,96250.50
2017-05-20T19:19:15.684Z,96254.80
2017-05-20T19:21:41.878Z,96253.23
2017-05-20T19:24:08.157Z,96255.85
2017-05-20T19:26:35.190Z,96259.97
2017-05-20T19:29:01.355Z,96259.03
2017-05-20T19:31:27.558Z,96257.14
2017-05-20T19:33:53.787Z,96270.77
2017-05-20T19:36:20.111Z,96272.45
2017-05-20T19:39:01.891Z,96277.31
2017-05-20T19:41:28.158Z,96284.63
2017-05-20T19:43:54.385Z,96287.63
2017-05-20T19:46:20.615Z,96288.34
2017-05-20T19:48:46.932Z,96293.77
2017-05-20T19:51:13.898Z,96297.84
2017-05-20T19:53:40.086Z,96303.83
2017-05-20T19:56:06.264Z,96299.88
2017-05-20T19:58:33.849Z,96311.69
2017-05-20T20:01:00.087Z,96320.11
2017-05-20T20:03:26.307Z,96320.47
2017-05-20T20:05:52.539Z,96317.44
2017-05-20T20:08:18.970Z,96331.25
2017-05-20T20:10:45.229Z,96327.30
2017-05-20T20:13:11.425Z,96335.48
2017-05-20T20:15:38.341Z,96332.28
2017-05-20T20:18:05.768Z,96332.24
2017-05-20T20:20:32.726Z,96333.72
2017-05-20T20:22:58.967Z,96342.69
2017-05-20T20:25:25.162Z,96343.21
2017-05-20T20:27:51.411Z,96349.67
2017-05-20T20:30:18.377Z,96348.42
2017-05-20T20:32:44.591Z,96352.67
2017-05-20T20:35:10.878Z,96358.97
2017-05-20T20:37:37.165Z,96352.81
2017-05-20T20:40:03.396Z,96350.89
2017-05-20T20:42:29.621Z,96353.98
2017-05-20T20:44:55.890Z,96352.39
2017-05-20T20:47:22.078Z,96354.84
2017-05-20T20:49:48.275Z,96359.47
2017-05-20T20:52:14.532Z,96356.72
2017-05-20T20:54:40.838Z,96356.69
2017-05-20T20:57:07.025Z,96354.16
2017-05-20T20:59:33.274Z,96362.05
2017-05-20T21:01:59.518Z,96356.20
2017-05-20T21:04:25.726Z,96358.34
2017-05-20T21:06:52.014Z,96360.35
2017-05-20T21:09:18.194Z,96351.86
2017-05-20T21:11:44.423Z,96357.30
2017-05-20T21:14:10.771Z,96357.95
2017-05-20T21:16:37.029Z,96360.25
2017-05-20T21:19:03.238Z,96361.27
2017-05-20T21:21:29.499Z,96364.30
2017-05-20T21:23:55.703Z,96364.78
2017-05-20T21:26:21.870Z,96364.49
2017-05-20T21:28:48.281Z,96362.84
2017-05-20T21:31:14.518Z,96367.33
2017-05-20T21:33:40.669Z,96365.32
2017-05-20T21:36:06.897Z,96369.49
2017-05-20T21:38:33.123Z,96372.91
2017-05-20T21:40:59.350Z,96374.69
2017-05-20T21:43:25.592Z,96379.40
2017-05-20T21:45:51.954Z,96377.93
2017-05-20T21:48:18.155Z,96378.49
2017-05-20T21:50:45.135Z,96381.89
2017-05-20T21:53:11.753Z,96385.98
2017-05-20T21:55:42.819Z,96384.88
2017-05-20T21:58:09.336Z,96386.49
2017-05-20T22:00:35.601Z,96391.09
2017-05-20T22:03:01.916Z,96389.22
2017-05-20T22:05:28.141Z,96389.80
2017-05-20T22:07:54.640Z,96385.33
2017-05-20T22:10:21.572Z,96386.23
2017-05-20T22:12:47.766Z,96394.48
2017-05-20T22:15:14.212Z,96393.54
2017-05-20T22:17:41.286Z,96400.14
2017-05-20T22:20:07.507Z,96401.58
2017-05-20T22:22:34.949Z,96400.52
2017-05-20T22:25:04.597Z,96401.48
2017-05-20T22:27:30.788Z,96405.81
2017-05-20T22:29:57.073Z,96403.03
2017-05-20T22:32:23.275Z,96407.40
2017-05-20T22:34:49.487Z,96403.55
2017-05-20T22:37:15.850Z,96405.13
2017-05-20T22:39:42.064Z,96404.98
2017-05-20T22:42:08.446Z,96402.52
2017-05-20T22:44:34.664Z,96409.34
2017-05-20T22:47:00.833Z,96417.05
2017-05-20T22:49:27.147Z,96414.26
2017-05-20T22:51:53.412Z,96422.67
2017-05-20T22:54:19.693Z,96420.92
2017-05-20T22:56:45.985Z,96420.05
2017-05-20T22:59:12.259Z,96421.23
2017-05-20T23:01:38.489Z,96425.28
2017-05-20T23:04:04.726Z,96418.94
2017-05-20T23:06:30.897Z,96421.70
2017-05-20T23:08:57.161Z,96420.95
2017-05-20T23:11:23.446Z,96417.72
2017-05-20T23:13:49.628Z,96419.91
2017-05-20T23:16:16.615Z,96418.77
2017-05-20T23:18:42.872Z,96412.60
2017-05-20T23:21:09.061Z,96412.94
2017-05-20T23:23:35.330Z,96410.13
2017-05-20T23:26:01.543Z,96406.38
2017-05-20T23:28:27.846Z,96405.73
2017-05-20T23:30:54.097Z,96400.81
2017-05-20T23:33:20.402Z,96401.11
2017-05-20T23:35:46.634Z,96404.05
2017-05-20T23:38:12.814Z,96402.13
2017-05-20T23:40:39.124Z,96399.06
2017-05-20T23:43:05.399Z,96400.59
2017-05-20T23:45:32.705Z,96400.62
2017-05-20T23:48:05.198Z,96400.25
2017-05-20T23:50:33.359Z,96405.13
2017-05-20T23:53:00.359Z,96402.61
2017-05-20T23:55:27.794Z,96407.05
2017-05-20T23:57:55.045Z,96400.34
